Česky Dansk Deutsch English Español Suomi Français Magyar Italiano Nederlands norsk Polski Português svenska Türkçe

 

Het Weer

Porto Velho Aeroporto (Brazilië)

10:00, 14 augustus 2016 (GMT)

NWNNE
WE
SWSSE
Home            
Porto Velho Aeroporto Guayaramerin Riberalta Manicore Rio Branco San Joaquin Magdalena Santa Ana Cobija Vilhena Aeroporto Tefe Trinidad San Ignacio De Moxos Puerto Maldonado Reyes Jacareacanga Rurrenabaque San Borja Tarauaca Manaus Aeroporto Eduardo Gomes International Ascencion De Guarayos Apolo

Om een weerknop op uw website of weblog te plaatsen, copieer onderstaande code en plak die in uw pagina. In het eerste vakje staat HTML-code, in het tweede vakje UBB-code.


Add to Google

Details

Visibility: 6000 m, 6.0 km, 19685 ft, 3.7 miles
Temperature:23°C, 73°F
Gefühlte Temperatur:22°C, 71°F
Dew-point:21°C, 70°F
Atmospheric pressure:1011 hPa, 758.3 mmHg, 29.85 inHg, 0.998 atm
Relative humidity:88.5 %
METAR:SBPV 141000Z 00000KT 6000 NSC 23/21 Q1011

Snelkoppelingen

Actuele weersinformatie van de hele wereld. Voeg locaties toe met het plus (+) symbool. Deze snelkoppelingen kunnen worden toegevoegd aan Google.

Lid van de Technetium groep

website free tracking
StatCounter NetStat W3C Validator

28-09-2020 04:30:34
astro.technetium.be money.technetium.be phote.technetium.be tafeltennistafel.technetium.be www.ligfiets.net